Time;durP1;ratioP1;P1;durP2;ratioP2;P2;SDS_P1;SDS_P2;PMS_P1;PMS_P2;Temp;Humidity;BMP_temperature;BMP_pressure;BME280_temperature;BME280_humidity;BME280_pressure;Samples;Min_cycle;Max_cycle;Signal;HPM_P1;HPM_P2
2022/03/19 00:02:11;;;;;;;11.65;2.95;;;8.30;99.90;;;;;;5079432;27;20036;-74
2022/03/19 00:04:37;;;;;;;21.30;4.38;;;8.30;99.90;;;;;;5075119;28;20035;-76
2022/03/19 00:07:04;;;;;;;17.98;3.47;;;8.30;99.90;;;;;;5074325;28;20486;-74
2022/03/19 00:09:30;;;;;;;14.50;3.45;;;8.30;99.90;;;;;;5074761;28;20030;-75
2022/03/19 00:11:57;;;;;;;19.80;4.10;;;8.30;99.90;;;;;;5097025;28;20034;-75
2022/03/19 00:14:24;;;;;;;16.00;3.63;;;8.20;99.90;;;;;;5098719;27;20040;-76
2022/03/19 00:16:52;;;;;;;16.80;3.75;;;8.20;99.90;;;;;;5045201;28;20039;-75
2022/03/19 00:19:19;;;;;;;14.73;3.13;;;8.20;99.90;;;;;;5078820;28;20028;-75
2022/03/19 00:21:45;;;;;;;17.70;4.10;;;8.20;99.90;;;;;;5096206;28;20020;-75
2022/03/19 00:24:12;;;;;;;15.73;4.03;;;8.20;99.90;;;;;;5067403;28;20035;-75
2022/03/19 00:26:38;;;;;;;13.38;3.15;;;8.20;99.90;;;;;;5076657;28;20024;-75
2022/03/19 00:29:05;;;;;;;19.25;4.18;;;8.10;99.90;;;;;;5077372;28;20024;-75
2022/03/19 00:31:32;;;;;;;14.93;3.47;;;8.20;99.90;;;;;;5060934;28;20039;-75
2022/03/19 00:33:59;;;;;;;22.00;4.30;;;8.10;99.90;;;;;;5083373;27;20035;-75
2022/03/19 00:36:26;;;;;;;14.70;4.20;;;8.10;99.90;;;;;;5103126;27;20035;-75
2022/03/19 00:38:53;;;;;;;13.60;4.07;;;8.10;99.90;;;;;;5082487;27;20031;-75
2022/03/19 00:41:20;;;;;;;16.08;3.55;;;8.00;99.90;;;;;;5097908;27;20026;-75
2022/03/19 00:43:47;;;;;;;18.30;4.40;;;8.00;99.90;;;;;;5101844;27;20027;-75
2022/03/19 00:46:15;;;;;;;18.85;4.05;;;8.00;99.90;;;;;;5102497;27;20074;-75
2022/03/19 00:48:42;;;;;;;14.15;4.30;;;8.00;99.90;;;;;;5083199;28;20038;-75
2022/03/19 00:51:08;;;;;;;14.52;3.97;;;7.90;99.90;;;;;;5067869;28;20467;-75
2022/03/19 00:53:35;;;;;;;20.20;4.45;;;7.90;99.90;;;;;;5082090;28;20035;-75
2022/03/19 00:56:01;;;;;;;18.13;4.50;;;7.90;99.90;;;;;;5066123;28;20024;-75
2022/03/19 00:58:28;;;;;;;14.52;4.80;;;7.90;99.90;;;;;;5084225;28;20023;-75
2022/03/19 01:00:54;;;;;;;16.35;4.53;;;7.80;99.90;;;;;;5096852;27;20032;-75
2022/03/19 01:03:21;;;;;;;26.05;5.43;;;7.80;99.90;;;;;;5083209;27;20032;-75
2022/03/19 01:05:47;;;;;;;16.13;4.30;;;7.80;99.90;;;;;;5084481;28;20030;-75
2022/03/19 01:08:14;;;;;;;12.50;3.95;;;7.80;99.90;;;;;;5103181;27;20020;-75
2022/03/19 01:10:41;;;;;;;16.77;4.70;;;7.80;99.90;;;;;;5098972;27;20549;-75
2022/03/19 01:13:08;;;;;;;20.98;5.13;;;7.70;99.90;;;;;;5099291;27;21550;-75
2022/03/19 01:15:34;;;;;;;19.25;5.15;;;7.70;99.90;;;;;;5080348;28;20032;-75
2022/03/19 01:18:02;;;;;;;15.75;4.60;;;7.70;99.90;;;;;;5082445;28;20016;-75
2022/03/19 01:20:29;;;;;;;19.23;5.57;;;7.70;99.90;;;;;;5057793;28;20032;-75
2022/03/19 01:22:55;;;;;;;20.13;4.75;;;7.70;99.90;;;;;;5080812;28;20036;-75
2022/03/19 01:25:22;;;;;;;14.65;4.95;;;7.70;99.90;;;;;;5080945;28;20016;-75
2022/03/19 01:27:50;;;;;;;15.38;5.43;;;7.60;99.90;;;;;;5082160;28;20044;-75
2022/03/19 01:30:19;;;;;;;21.30;5.07;;;7.60;99.90;;;;;;5079146;28;20032;-75
2022/03/19 01:32:47;;;;;;;17.95;5.43;;;7.60;99.90;;;;;;5082657;28;20028;-74
2022/03/19 01:35:15;;;;;;;19.63;6.07;;;7.50;99.90;;;;;;5080043;28;20021;-75
2022/03/19 01:37:43;;;;;;;14.48;5.85;;;7.50;99.90;;;;;;5080607;28;20025;-75
2022/03/19 01:40:11;;;;;;;15.55;5.47;;;7.50;99.90;;;;;;5074322;28;20032;-75
2022/03/19 01:42:41;;;;;;;24.92;6.78;;;7.50;99.90;;;;;;5062166;28;20831;-75
2022/03/19 01:45:14;;;;;;;20.08;7.45;;;7.50;99.90;;;;;;5077843;28;20098;-75
2022/03/19 01:47:41;;;;;;;22.33;7.03;;;7.50;99.90;;;;;;5064708;28;20052;-75
2022/03/19 01:50:09;;;;;;;20.90;6.95;;;7.50;99.90;;;;;;5079572;28;20043;-75
2022/03/19 01:52:36;;;;;;;22.88;6.90;;;7.50;99.90;;;;;;5075201;28;20020;-75
2022/03/19 01:55:04;;;;;;;25.17;6.60;;;7.50;99.90;;;;;;5081024;28;20039;-75
2022/03/19 01:57:34;;;;;;;22.65;6.18;;;7.60;99.90;;;;;;5075965;28;20051;-75
2022/03/19 02:00:02;;;;;;;11.82;6.13;;;7.50;99.90;;;;;;5072851;28;20020;-75
2022/03/19 02:02:38;;;;;;;19.38;7.05;;;7.50;99.90;;;;;;5080190;28;20379;-75
2022/03/19 02:05:06;;;;;;;19.50;7.43;;;7.50;99.90;;;;;;5080425;28;20021;-76
2022/03/19 02:07:32;;;;;;;21.45;6.97;;;7.50;99.90;;;;;;5077363;28;20036;-76
2022/03/19 02:10:00;;;;;;;17.95;6.72;;;7.50;99.90;;;;;;5073645;28;21277;-75
2022/03/19 02:12:27;;;;;;;24.15;8.25;;;7.40;99.90;;;;;;5077769;28;20028;-76
2022/03/19 02:14:54;;;;;;;23.70;7.53;;;7.40;99.90;;;;;;5080132;28;20075;-75
2022/03/19 02:17:20;;;;;;;17.30;7.35;;;7.40;99.90;;;;;;5079302;28;20027;-75
2022/03/19 02:19:49;;;;;;;17.63;6.55;;;7.40;99.90;;;;;;5058085;28;20043;-75
2022/03/19 02:22:20;;;;;;;21.85;7.53;;;7.40;99.90;;;;;;5077209;28;20372;-75
2022/03/19 02:27:34;;;;;;;20.90;6.65;;;7.40;99.90;;;;;;5077107;28;20407;-76
2022/03/19 02:30:03;;;;;;;25.00;8.30;;;7.40;99.90;;;;;;5074043;28;20032;-76
2022/03/19 02:32:30;;;;;;;16.98;6.63;;;7.40;99.90;;;;;;5046622;28;20032;-76
2022/03/19 02:34:57;;;;;;;25.13;6.88;;;7.40;99.90;;;;;;5077284;28;20028;-76
2022/03/19 02:37:24;;;;;;;28.10;6.80;;;7.40;99.90;;;;;;5076675;28;20341;-76
2022/03/19 02:39:50;;;;;;;20.98;6.13;;;7.30;99.90;;;;;;5075012;28;20036;-76
2022/03/19 02:42:19;;;;;;;17.85;6.80;;;7.30;99.90;;;;;;5078487;28;20031;-75
2022/03/19 02:44:47;;;;;;;19.10;6.28;;;7.30;99.90;;;;;;5059974;28;20032;-76
2022/03/19 02:47:13;;;;;;;21.52;7.13;;;7.30;99.90;;;;;;5075511;28;20458;-75
2022/03/19 02:49:39;;;;;;;22.27;6.78;;;7.30;99.90;;;;;;5077051;28;20023;-75
2022/03/19 02:52:06;;;;;;;22.77;6.63;;;7.30;99.90;;;;;;5033028;28;20807;-76
2022/03/19 02:54:33;;;;;;;21.10;6.68;;;7.30;99.90;;;;;;5085032;28;20024;-75
2022/03/19 02:56:59;;;;;;;20.40;6.65;;;7.20;99.90;;;;;;5079343;28;20028;-75
2022/03/19 02:59:29;;;;;;;22.15;6.43;;;7.20;99.90;;;;;;5077985;28;20020;-76
2022/03/19 03:02:07;;;;;;;24.42;6.85;;;7.20;99.90;;;;;;5079417;28;20123;-75
2022/03/19 03:04:34;;;;;;;21.88;5.95;;;7.20;99.90;;;;;;5078050;28;20031;-75
2022/03/19 03:07:03;;;;;;;18.30;5.28;;;7.20;99.90;;;;;;5077462;28;20020;-75
2022/03/19 03:09:30;;;;;;;24.45;6.07;;;7.10;99.90;;;;;;5088464;28;20451;-75
2022/03/19 03:12:01;;;;;;;20.10;6.10;;;7.20;99.90;;;;;;5075984;28;20043;-75
2022/03/19 03:14:28;;;;;;;23.63;6.22;;;7.10;99.90;;;;;;5085641;28;20028;-75
2022/03/19 03:16:59;;;;;;;21.15;5.78;;;7.10;99.90;;;;;;5079483;28;20405;-75
2022/03/19 03:19:25;;;;;;;18.20;6.72;;;7.10;99.90;;;;;;5078496;27;20035;-75
2022/03/19 03:21:52;;;;;;;14.27;4.93;;;7.10;99.90;;;;;;5075932;28;20042;-75
2022/03/19 03:24:18;;;;;;;13.93;5.43;;;7.00;99.90;;;;;;5073862;28;20027;-75
2022/03/19 03:26:45;;;;;;;18.77;6.43;;;7.00;99.90;;;;;;5074299;27;20540;-76
2022/03/19 03:29:14;;;;;;;20.45;6.57;;;7.00;99.90;;;;;;5077885;27;20032;-75
2022/03/19 03:31:40;;;;;;;18.35;6.30;;;7.00;99.90;;;;;;5077947;27;20031;-75
2022/03/19 03:34:07;;;;;;;19.27;6.20;;;7.00;99.90;;;;;;5095225;27;20016;-75
2022/03/19 03:36:34;;;;;;;19.58;5.72;;;7.00;99.90;;;;;;5076305;28;20020;-76
2022/03/19 03:39:00;;;;;;;17.55;5.78;;;7.00;99.90;;;;;;5077059;28;20016;-75
2022/03/19 03:41:27;;;;;;;25.07;7.80;;;7.00;99.90;;;;;;5075106;28;20027;-75
2022/03/19 03:43:53;;;;;;;16.73;6.75;;;7.00;99.90;;;;;;5047974;28;20024;-75
2022/03/19 03:46:20;;;;;;;17.92;6.55;;;7.00;99.90;;;;;;5094356;28;20042;-75
2022/03/19 03:48:46;;;;;;;21.98;7.50;;;7.10;99.90;;;;;;5094138;28;20043;-75
2022/03/19 03:51:13;;;;;;;12.77;5.93;;;7.10;99.90;;;;;;5093338;27;20444;-75
2022/03/19 03:53:40;;;;;;;16.13;6.43;;;7.20;99.90;;;;;;5058969;28;20039;-75
2022/03/19 03:56:09;;;;;;;17.90;6.57;;;7.20;99.90;;;;;;5096623;28;20011;-75
2022/03/19 03:58:36;;;;;;;18.67;6.35;;;7.10;99.90;;;;;;5096566;28;20031;-75
2022/03/19 04:01:03;;;;;;;19.48;6.75;;;7.20;99.90;;;;;;5093238;27;20016;-75
2022/03/19 04:03:30;;;;;;;18.80;6.45;;;7.10;99.90;;;;;;5077577;28;20032;-75
2022/03/19 04:05:56;;;;;;;21.60;8.13;;;7.10;99.90;;;;;;5077627;28;20039;-76
2022/03/19 04:08:23;;;;;;;18.70;7.53;;;7.20;99.90;;;;;;5076151;28;20043;-75
2022/03/19 04:10:49;;;;;;;22.67;6.85;;;7.20;99.90;;;;;;5057417;28;20094;-75
2022/03/19 04:13:16;;;;;;;18.85;7.68;;;7.20;99.90;;;;;;5074340;28;20026;-75
2022/03/19 04:15:42;;;;;;;13.45;6.80;;;7.20;99.90;;;;;;5076874;28;20051;-75
2022/03/19 04:18:09;;;;;;;21.92;7.75;;;7.20;99.90;;;;;;5058415;28;20028;-75
2022/03/19 04:20:35;;;;;;;19.63;6.97;;;7.10;99.90;;;;;;5092425;28;20031;-75
2022/03/19 04:23:02;;;;;;;18.92;6.93;;;7.20;99.90;;;;;;5095128;28;20012;-75
2022/03/19 04:25:28;;;;;;;20.83;7.85;;;7.20;99.90;;;;;;5080551;28;20035;-75
2022/03/19 04:27:56;;;;;;;18.02;7.72;;;7.20;99.90;;;;;;5079497;28;20131;-75
2022/03/19 04:30:25;;;;;;;19.30;8.00;;;7.20;99.90;;;;;;5092433;28;20031;-75
2022/03/19 04:32:54;;;;;;;24.73;7.53;;;7.20;99.90;;;;;;5093875;28;20024;-75
2022/03/19 04:38:18;;;;;;;21.65;7.18;;;7.10;99.90;;;;;;5077041;28;20034;-75
2022/03/19 04:40:47;;;;;;;18.85;7.32;;;7.00;99.90;;;;;;5094690;28;20044;-75
2022/03/19 04:43:14;;;;;;;20.17;7.80;;;7.00;99.90;;;;;;5078617;28;20027;-75
2022/03/19 04:45:41;;;;;;;18.58;7.90;;;6.90;99.90;;;;;;5100278;28;20016;-75
2022/03/19 04:48:09;;;;;;;22.73;7.70;;;6.90;99.90;;;;;;5081181;28;20371;-75
2022/03/19 04:50:37;;;;;;;17.50;7.63;;;6.90;99.90;;;;;;5077891;28;20032;-75
2022/03/19 04:53:05;;;;;;;23.75;7.55;;;6.80;99.90;;;;;;5057939;28;20046;-75
2022/03/19 04:55:36;;;;;;;17.55;6.40;;;6.90;99.90;;;;;;5078384;28;20032;-75
2022/03/19 04:58:04;;;;;;;25.05;7.00;;;6.90;99.90;;;;;;5064015;28;20035;-75
2022/03/19 05:00:31;;;;;;;17.27;7.35;;;6.80;99.90;;;;;;5058935;28;20028;-75
2022/03/19 05:02:58;;;;;;;23.23;8.10;;;6.80;99.90;;;;;;5078646;28;20019;-75
2022/03/19 05:05:25;;;;;;;22.85;7.00;;;6.80;99.90;;;;;;5098160;28;20015;-75
2022/03/19 05:07:53;;;;;;;17.13;6.57;;;6.80;99.90;;;;;;5098391;28;20034;-75
2022/03/19 05:13:07;;;;;;;19.48;7.00;;;6.80;99.90;;;;;;5073977;28;20019;-75
2022/03/19 05:15:34;;;;;;;19.55;6.05;;;6.70;99.90;;;;;;5096933;28;20031;-75
2022/03/19 05:18:01;;;;;;;24.15;7.38;;;6.70;99.90;;;;;;5063060;28;20038;-75
2022/03/19 05:20:28;;;;;;;18.05;7.25;;;6.70;99.90;;;;;;5074596;27;20054;-75
2022/03/19 05:22:54;;;;;;;17.47;6.70;;;6.60;99.90;;;;;;5079764;27;20028;-76
2022/03/19 05:25:21;;;;;;;24.35;7.35;;;6.60;99.90;;;;;;5062821;27;20024;-75
2022/03/19 05:27:49;;;;;;;22.58;7.43;;;6.60;99.90;;;;;;5102779;27;20091;-75
2022/03/19 05:30:15;;;;;;;22.40;6.57;;;6.60;99.90;;;;;;5077911;27;20363;-75
2022/03/19 05:32:42;;;;;;;19.85;6.65;;;6.60;99.90;;;;;;5098955;27;20027;-75
2022/03/19 05:35:09;;;;;;;21.85;7.25;;;6.60;99.90;;;;;;5101040;27;20546;-75
2022/03/19 05:37:36;;;;;;;20.00;6.55;;;6.50;99.90;;;;;;5098926;27;20024;-75
2022/03/19 05:40:06;;;;;;;22.40;6.70;;;6.50;99.90;;;;;;5099255;27;20046;-75
2022/03/19 05:42:32;;;;;;;15.65;5.43;;;6.50;99.90;;;;;;5047377;27;20073;-75
2022/03/19 05:44:59;;;;;;;19.08;5.70;;;6.50;99.90;;;;;;5050731;27;20851;-75
2022/03/19 05:47:25;;;;;;;17.25;5.70;;;6.50;99.90;;;;;;5065383;28;20371;-75
2022/03/19 05:49:52;;;;;;;15.38;6.00;;;6.50;99.90;;;;;;5079847;28;20035;-76
2022/03/19 05:52:19;;;;;;;18.50;5.93;;;6.50;99.90;;;;;;5079828;27;20021;-75
2022/03/19 05:54:46;;;;;;;20.33;5.22;;;6.40;99.90;;;;;;5080104;28;20024;-75
2022/03/19 05:57:12;;;;;;;14.95;4.95;;;6.50;99.90;;;;;;5080739;28;20035;-75
2022/03/19 05:59:39;;;;;;;14.30;5.25;;;6.50;99.90;;;;;;5060598;27;21026;-75
2022/03/19 06:02:08;;;;;;;17.88;5.07;;;6.50;99.90;;;;;;5079517;27;20039;-75
2022/03/19 06:04:35;;;;;;;18.38;5.65;;;6.40;99.90;;;;;;5103124;27;20019;-75
2022/03/19 06:07:02;;;;;;;16.40;5.55;;;6.40;99.90;;;;;;5084692;27;20483;-75
2022/03/19 06:09:28;;;;;;;19.65;5.05;;;6.40;99.90;;;;;;5099298;27;20391;-75
2022/03/19 06:11:55;;;;;;;11.73;4.43;;;6.50;99.90;;;;;;5079551;28;20347;-75
2022/03/19 06:14:22;;;;;;;17.83;6.15;;;6.40;99.90;;;;;;5098402;27;20039;-75
2022/03/19 06:16:49;;;;;;;17.92;5.13;;;6.50;99.90;;;;;;5101755;27;20509;-75
2022/03/19 06:19:16;;;;;;;16.90;5.45;;;6.50;99.90;;;;;;5084190;27;20487;-75
2022/03/19 06:21:43;;;;;;;15.82;4.53;;;6.50;99.90;;;;;;5078645;27;20505;-75
2022/03/19 06:24:09;;;;;;;19.63;5.25;;;6.60;99.90;;;;;;5100716;27;20028;-77
2022/03/19 06:26:37;;;;;;;10.10;4.20;;;6.60;99.90;;;;;;5105615;27;20039;-74
2022/03/19 06:29:03;;;;;;;15.40;4.38;;;6.60;99.90;;;;;;5083905;28;20036;-74
2022/03/19 06:31:30;;;;;;;16.27;5.30;;;6.70;99.90;;;;;;5095139;27;20012;-76
2022/03/19 06:33:56;;;;;;;20.95;4.82;;;6.80;99.90;;;;;;5099185;27;20027;-76
2022/03/19 06:39:08;;;;;;;15.63;4.38;;;6.90;99.90;;;;;;5080673;28;20035;-76
2022/03/19 06:41:35;;;;;;;20.08;4.30;;;7.00;99.90;;;;;;5079300;28;20062;-75
2022/03/19 06:44:01;;;;;;;14.18;4.00;;;7.10;99.90;;;;;;5098210;27;20383;-75
2022/03/19 06:46:27;;;;;;;18.02;4.70;;;7.20;99.90;;;;;;5100757;28;20023;-75
2022/03/19 06:48:54;;;;;;;19.58;4.40;;;7.20;99.90;;;;;;5081522;28;20023;-75
2022/03/19 06:51:21;;;;;;;16.23;4.05;;;7.30;99.90;;;;;;5077138;28;20027;-74
2022/03/19 06:53:48;;;;;;;14.68;3.65;;;7.30;99.90;;;;;;5079878;28;20012;-75
2022/03/19 06:56:15;;;;;;;15.07;3.63;;;7.40;99.90;;;;;;5096347;27;20016;-75
2022/03/19 06:58:42;;;;;;;12.82;3.13;;;7.40;99.90;;;;;;5069986;28;20024;-74
2022/03/19 07:01:15;;;;;;;13.02;3.85;;;7.50;99.90;;;;;;5061428;28;20032;-75
2022/03/19 07:03:43;;;;;;;15.02;3.67;;;7.50;99.90;;;;;;5068520;28;20031;-74
2022/03/19 07:06:11;;;;;;;16.67;3.42;;;7.60;99.90;;;;;;5097358;27;20009;-75
2022/03/19 07:08:39;;;;;;;16.73;4.65;;;7.70;99.90;;;;;;5062306;28;20028;-75
2022/03/19 07:11:06;;;;;;;13.80;3.83;;;7.80;99.90;;;;;;5058612;28;20035;-75
2022/03/19 07:13:32;;;;;;;16.75;3.97;;;7.80;99.90;;;;;;5094924;27;20012;-75
2022/03/19 07:15:59;;;;;;;17.80;4.20;;;7.80;99.90;;;;;;5096340;27;20047;-75
2022/03/19 07:18:26;;;;;;;15.55;4.03;;;7.80;99.90;;;;;;5060376;28;20027;-75
2022/03/19 07:20:52;;;;;;;16.55;3.28;;;7.90;99.90;;;;;;5066656;28;20035;-74
2022/03/19 07:23:19;;;;;;;12.88;4.05;;;7.90;99.90;;;;;;5061970;28;20043;-74
2022/03/19 07:25:45;;;;;;;15.50;4.00;;;8.00;99.90;;;;;;5080696;28;20629;-75
2022/03/19 07:28:19;;;;;;;13.27;3.72;;;8.00;99.90;;;;;;5065419;27;20031;-75
2022/03/19 07:30:47;;;;;;;17.23;3.80;;;8.10;99.90;;;;;;5096228;27;20034;-75
2022/03/19 07:33:14;;;;;;;16.77;4.85;;;8.20;99.90;;;;;;5078301;28;20012;-75
2022/03/19 07:35:41;;;;;;;15.82;4.70;;;8.20;99.90;;;;;;5080771;28;20008;-75
2022/03/19 07:38:09;;;;;;;12.25;4.55;;;8.20;99.90;;;;;;5077199;28;20359;-75
2022/03/19 07:43:21;;;;;;;16.52;4.60;;;8.30;99.90;;;;;;5077535;28;20038;-74
2022/03/19 07:45:48;;;;;;;14.05;4.50;;;8.40;99.90;;;;;;5080426;28;20401;-75
2022/03/19 07:48:15;;;;;;;15.80;4.40;;;8.40;99.90;;;;;;5078220;28;20043;-74
2022/03/19 07:50:42;;;;;;;13.75;3.95;;;8.40;99.90;;;;;;5093740;27;20035;-75
2022/03/19 07:53:08;;;;;;;17.95;5.25;;;8.50;99.90;;;;;;5097104;28;20115;-75
2022/03/19 07:55:35;;;;;;;12.23;4.65;;;8.60;99.90;;;;;;5097670;28;20030;-75
2022/03/19 07:58:03;;;;;;;16.80;3.97;;;8.70;99.90;;;;;;5096978;28;20015;-75
2022/03/19 08:00:30;;;;;;;21.98;4.72;;;8.80;99.90;;;;;;5075218;27;20383;-75
2022/03/19 08:02:56;;;;;;;14.20;4.25;;;8.90;99.90;;;;;;5080082;28;20038;-75
2022/03/19 08:05:23;;;;;;;15.60;5.13;;;8.90;99.90;;;;;;5062954;27;20023;-74
2022/03/19 08:07:51;;;;;;;13.85;3.95;;;9.00;99.90;;;;;;5094734;28;20020;-75
2022/03/19 08:10:18;;;;;;;10.00;3.53;;;9.10;99.90;;;;;;5058508;28;20529;-75
2022/03/19 08:12:47;;;;;;;16.85;4.45;;;9.20;99.90;;;;;;5078460;28;20008;-75
2022/03/19 08:15:13;;;;;;;16.50;4.75;;;9.40;99.90;;;;;;5096845;28;20051;-76
2022/03/19 08:17:43;;;;;;;12.27;3.90;;;9.40;99.90;;;;;;5097051;28;20015;-76
2022/03/19 08:20:10;;;;;;;10.77;4.10;;;9.40;99.90;;;;;;5094316;28;20035;-75
2022/03/19 08:22:38;;;;;;;16.98;4.85;;;9.50;99.90;;;;;;5100539;28;20019;-76
2022/03/19 08:25:06;;;;;;;11.60;3.53;;;9.70;99.90;;;;;;5098993;28;20573;-75
2022/03/19 08:27:32;;;;;;;15.55;3.42;;;9.70;99.90;;;;;;5081739;28;20052;-75
2022/03/19 08:29:59;;;;;;;15.63;3.40;;;9.80;99.90;;;;;;5078134;28;20058;-76
2022/03/19 08:32:25;;;;;;;12.73;3.33;;;9.80;99.90;;;;;;5077656;28;20467;-75
2022/03/19 08:34:52;;;;;;;12.73;3.17;;;9.90;99.90;;;;;;5095224;28;20378;-76
2022/03/19 08:37:18;;;;;;;17.00;3.80;;;10.00;99.90;;;;;;5078837;28;20024;-76
2022/03/19 08:42:33;;;;;;;13.18;3.95;;;10.10;99.90;;;;;;5096039;28;20563;-76
2022/03/19 08:44:59;;;;;;;9.57;2.63;;;10.20;99.90;;;;;;5060831;28;20462;-76
2022/03/19 08:47:26;;;;;;;13.63;3.05;;;10.30;99.90;;;;;;5096510;28;20027;-76
2022/03/19 08:49:52;;;;;;;12.73;3.15;;;10.40;99.90;;;;;;5094369;28;20499;-76
2022/03/19 08:52:19;;;;;;;10.93;3.22;;;10.50;99.50;;;;;;5094918;28;20028;-75
2022/03/19 08:54:45;;;;;;;10.98;3.03;;;10.50;99.40;;;;;;5095635;28;20019;-76
2022/03/19 08:57:13;;;;;;;13.15;2.88;;;10.60;98.40;;;;;;5101598;27;20012;-76
2022/03/19 08:59:40;;;;;;;15.63;3.90;;;10.70;98.20;;;;;;5098297;27;20123;-76
2022/03/19 09:02:07;;;;;;;10.88;2.60;;;10.80;98.20;;;;;;5100394;27;20470;-76
2022/03/19 09:04:34;;;;;;;9.50;2.60;;;10.90;97.30;;;;;;5099424;27;20043;-75
2022/03/19 09:07:00;;;;;;;7.95;2.65;;;10.90;96.90;;;;;;5062497;28;20032;-77
2022/03/19 09:09:27;;;;;;;12.52;2.78;;;11.00;96.40;;;;;;5099002;27;20024;-77
2022/03/19 09:11:53;;;;;;;10.68;2.53;;;11.00;96.50;;;;;;5079980;28;20027;-77
2022/03/19 09:14:20;;;;;;;10.05;2.13;;;11.20;95.80;;;;;;5080059;27;20479;-77
2022/03/19 09:16:47;;;;;;;11.75;3.67;;;11.30;95.00;;;;;;5071471;27;20020;-74
2022/03/19 09:19:13;;;;;;;8.75;2.33;;;11.30;94.60;;;;;;5101145;27;20019;-76
2022/03/19 09:21:41;;;;;;;10.10;2.30;;;11.40;93.30;;;;;;5064090;28;20030;-77
2022/03/19 09:24:08;;;;;;;9.05;2.45;;;11.40;93.00;;;;;;5048355;28;20479;-76
2022/03/19 09:26:35;;;;;;;7.95;2.08;;;11.40;92.60;;;;;;5100024;27;20020;-76
2022/03/19 09:29:01;;;;;;;10.43;2.45;;;11.50;92.00;;;;;;5082334;28;20023;-78
2022/03/19 09:31:28;;;;;;;8.85;2.15;;;11.50;91.20;;;;;;5081696;28;20015;-76
2022/03/19 09:33:54;;;;;;;9.25;2.40;;;11.60;90.60;;;;;;5052758;28;20027;-77
2022/03/19 09:36:21;;;;;;;6.60;2.28;;;11.60;90.10;;;;;;5099804;27;20027;-76
2022/03/19 09:38:47;;;;;;;12.77;2.10;;;11.60;90.00;;;;;;5063989;28;20023;-78
2022/03/19 09:41:14;;;;;;;7.80;1.52;;;11.70;87.40;;;;;;5099091;27;20023;-78
2022/03/19 09:43:42;;;;;;;7.10;1.75;;;11.80;84.60;;;;;;5083842;27;20055;-79
2022/03/19 09:46:08;;;;;;;7.13;1.50;;;11.80;83.70;;;;;;5101736;27;20015;-78
2022/03/19 09:48:34;;;;;;;7.55;1.73;;;11.80;81.70;;;;;;5104239;27;20015;-78
2022/03/19 09:51:01;;;;;;;5.22;1.30;;;11.80;81.80;;;;;;5065780;28;20162;-77
2022/03/19 09:53:28;;;;;;;6.40;1.35;;;11.90;79.40;;;;;;5080308;28;20020;-78
2022/03/19 09:55:57;;;;;;;8.48;1.15;;;12.00;78.70;;;;;;5105136;27;20020;-77
2022/03/19 09:58:24;;;;;;;6.32;1.45;;;12.00;78.60;;;;;;5081241;27;20024;-78
2022/03/19 10:00:51;;;;;;;5.93;2.33;;;12.00;76.50;;;;;;5100004;27;20375;-79
2022/03/19 10:03:22;;;;;;;6.05;1.52;;;12.10;76.00;;;;;;5068155;27;20387;-79
2022/03/19 10:08:37;;;;;;;6.90;0.95;;;12.20;71.20;;;;;;5099745;28;20031;-78
2022/03/19 10:11:04;;;;;;;4.38;0.90;;;12.30;70.30;;;;;;5080571;28;20494;-77
2022/03/19 10:13:31;;;;;;;4.28;1.02;;;12.30;70.70;;;;;;5087000;27;20027;-79
2022/03/19 10:15:57;;;;;;;5.82;0.98;;;12.50;69.70;;;;;;5104567;27;20036;-78
2022/03/19 10:18:28;;;;;;;5.80;1.13;;;12.50;67.50;;;;;;5104871;27;20467;-77
2022/03/19 10:21:01;;;;;;;7.22;1.20;;;12.60;68.00;;;;;;5099567;27;20046;-77
2022/03/19 10:23:31;;;;;;;;;;;12.70;68.90;;;;;;5103562;27;20459;-79
2022/03/19 10:25:57;;;;;;;6.93;1.52;;;12.90;68.40;;;;;;5106239;27;19904;-79
2022/03/19 10:28:35;;;;;;;6.10;1.15;;;13.00;68.60;;;;;;5088832;28;20038;-78
2022/03/19 10:31:03;;;;;;;6.38;1.27;;;13.10;67.90;;;;;;5094498;27;20030;-74
2022/03/19 10:33:30;;;;;;;7.75;1.50;;;13.30;65.50;;;;;;5100426;27;20039;-76
2022/03/19 10:36:11;;;;;;;4.90;1.45;;;13.50;66.00;;;;;;5101529;27;20032;-77
2022/03/19 10:38:45;;;;;;;7.57;1.13;;;13.60;64.90;;;;;;5082000;28;20027;-75
2022/03/19 10:41:17;;;;;;;3.63;1.00;;;13.80;62.20;;;;;;5079181;28;20027;-76
2022/03/19 10:43:47;;;;;;;11.90;1.47;;;14.00;60.10;;;;;;5081290;27;20031;-76
2022/03/19 10:46:20;;;;;;;5.95;1.45;;;14.10;60.40;;;;;;5082932;28;20678;-76
2022/03/19 10:48:53;;;;;;;4.85;1.25;;;14.30;60.10;;;;;;5100369;27;20023;-79
2022/03/19 10:51:23;;;;;;;9.63;4.05;;;14.50;60.80;;;;;;5081711;27;20015;-77
2022/03/19 10:53:50;;;;;;;5.47;1.55;;;14.80;60.20;;;;;;5068783;28;20023;-77
2022/03/19 10:56:16;;;;;;;6.80;1.52;;;15.00;58.00;;;;;;5098374;27;20020;-76
2022/03/19 10:58:42;;;;;;;5.68;1.38;;;15.20;56.80;;;;;;5081781;27;20395;-76
2022/03/19 11:01:12;;;;;;;5.90;1.10;;;15.30;57.70;;;;;;5097161;27;20030;-75
2022/03/19 11:03:40;;;;;;;5.90;2.35;;;15.60;56.60;;;;;;5063744;28;20020;-75
2022/03/19 11:06:07;;;;;;;8.63;1.00;;;15.90;55.40;;;;;;5080074;28;20019;-76
2022/03/19 11:08:41;;;;;;;5.45;1.80;;;16.10;55.30;;;;;;5099614;27;20009;-77
2022/03/19 11:11:14;;;;;;;4.45;1.17;;;16.40;53.90;;;;;;5100576;27;20024;-76
2022/03/19 11:13:42;;;;;;;;;;;16.60;52.60;;;;;;5082320;28;20351;-78
2022/03/19 11:16:11;;;;;;;5.18;0.88;;;16.80;51.30;;;;;;5099310;27;19919;-75
2022/03/19 11:18:40;;;;;;;5.45;0.90;;;17.00;48.30;;;;;;5099525;27;20012;-75
2022/03/19 11:21:09;;;;;;;6.53;1.27;;;17.10;49.40;;;;;;5097004;27;20015;-77
2022/03/19 11:23:44;;;;;;;3.25;0.70;;;17.30;49.30;;;;;;5100281;27;20038;-76
2022/03/19 11:26:15;;;;;;;4.05;0.70;;;17.60;48.90;;;;;;5096336;27;20040;-76
2022/03/19 11:28:41;;;;;;;2.97;0.65;;;17.70;45.20;;;;;;5083031;28;20024;-76
2022/03/19 11:31:09;;;;;;;5.55;0.70;;;17.70;44.00;;;;;;5077797;28;20038;-77
2022/03/19 11:33:37;;;;;;;5.88;1.20;;;17.80;44.50;;;;;;5081668;28;20035;-75
2022/03/19 11:36:10;;;;;;;4.10;0.70;;;17.90;43.80;;;;;;5096772;28;20019;-76
2022/03/19 11:38:54;;;;;;;2.47;0.75;;;18.00;42.90;;;;;;5100560;27;20077;-76
2022/03/19 11:41:24;;;;;;;8.70;0.88;;;18.10;44.30;;;;;;5062221;28;20020;-76
2022/03/19 11:44:23;;;;;;;4.13;1.02;;;18.30;43.40;;;;;;5098455;28;20019;-75
2022/03/19 11:47:13;;;;;;;3.17;0.70;;;18.40;43.10;;;;;;5064845;28;20015;-76
2022/03/19 11:49:47;;;;;;;4.07;0.82;;;18.50;42.30;;;;;;5079539;28;20664;-76
2022/03/19 11:52:24;;;;;;;5.72;1.90;;;18.40;41.70;;;;;;5093872;27;20024;-76
2022/03/19 11:55:00;;;;;;;3.15;0.60;;;18.30;43.00;;;;;;5100412;28;20015;-77
2022/03/19 11:57:28;;;;;;;3.00;0.50;;;18.50;40.70;;;;;;5100015;28;20034;-74
2022/03/19 11:59:59;;;;;;;2.55;0.50;;;18.50;40.40;;;;;;5078916;28;20040;-75
2022/03/19 12:02:27;;;;;;;3.22;0.50;;;18.60;38.00;;;;;;5066598;28;20035;-76
2022/03/19 12:04:57;;;;;;;3.00;0.50;;;18.50;38.20;;;;;;5099649;27;20023;-75
2022/03/19 12:07:47;;;;;;;3.83;0.50;;;18.50;37.70;;;;;;5098714;27;20494;-76
2022/03/19 12:10:23;;;;;;;6.38;0.70;;;18.70;38.10;;;;;;5069808;28;20048;-75
2022/03/19 12:12:51;;;;;;;5.25;1.90;;;18.80;38.80;;;;;;5102475;27;20031;-75
2022/03/19 12:15:32;;;;;;;34.33;22.27;;;19.10;39.30;;;;;;5098303;27;20967;-76
2022/03/19 12:18:24;;;;;;;4.95;1.13;;;19.20;38.80;;;;;;5099349;28;20051;-75
2022/03/19 12:20:52;;;;;;;3.15;0.80;;;19.50;39.40;;;;;;5075933;28;20034;-76
2022/03/19 12:23:19;;;;;;;4.60;1.20;;;19.70;39.00;;;;;;5062903;28;20035;-75
2022/03/19 12:26:00;;;;;;;5.28;1.00;;;19.70;39.70;;;;;;5100389;28;20353;-75
2022/03/19 12:28:26;;;;;;;5.10;1.17;;;19.90;39.80;;;;;;5096425;28;20031;-75
2022/03/19 12:30:53;;;;;;;4.20;1.00;;;19.90;38.70;;;;;;5099998;27;20043;-75
2022/03/19 12:33:30;;;;;;;4.93;0.90;;;19.90;38.80;;;;;;5083530;28;20023;-75
2022/03/19 12:35:58;;;;;;;4.90;0.80;;;20.20;38.70;;;;;;5078367;28;20024;-75
2022/03/19 12:38:32;;;;;;;5.68;1.10;;;20.40;37.40;;;;;;5085925;28;20015;-75
2022/03/19 12:43:44;;;;;;;4.50;1.00;;;20.50;36.80;;;;;;5084380;28;20016;-75
2022/03/19 12:46:11;;;;;;;2.38;0.60;;;20.70;36.50;;;;;;5084069;28;20019;-76
2022/03/19 12:48:39;;;;;;;2.90;0.80;;;20.60;36.50;;;;;;5104635;27;20053;-76
2022/03/19 12:51:06;;;;;;;3.33;0.75;;;20.70;36.90;;;;;;5079775;28;20036;-75
2022/03/19 12:53:39;;;;;;;3.58;0.90;;;21.00;36.80;;;;;;5103152;27;20478;-76
2022/03/19 12:56:09;;;;;;;6.03;0.82;;;21.10;36.30;;;;;;5085057;28;20116;-76
2022/03/19 12:58:40;;;;;;;6.45;0.77;;;21.10;36.20;;;;;;5084071;28;20028;-76
2022/03/19 13:01:09;;;;;;;3.83;0.90;;;21.10;36.60;;;;;;5079564;28;20128;-76
2022/03/19 13:03:35;;;;;;;4.10;0.60;;;21.30;37.80;;;;;;5082327;28;20023;-76
2022/03/19 13:06:02;;;;;;;9.60;1.08;;;21.70;36.80;;;;;;5083965;28;20024;-76
2022/03/19 13:08:28;;;;;;;4.72;0.80;;;22.00;35.60;;;;;;5083562;28;20071;-76
2022/03/19 13:10:55;;;;;;;3.95;1.38;;;22.20;35.20;;;;;;5081481;27;20036;-75
2022/03/19 13:13:21;;;;;;;8.02;0.80;;;22.30;34.60;;;;;;5099790;28;20027;-76